SWR2TV LIRN-LSZH
Flight info
| Callsign | SWR2TV |
|---|---|
| Flight time | 1h 18m |
| Altitude | 38000 |
| Route | ALAXI DCT INSOX DCT NIGSO DCT OSBUL DCT PEPAG DCT CANNE Z651 KELIP |
| Aircraft | A320/M-SDE3FGHIRWY/LB1 |
Departure
| Time | 2026-05-04 16:31 |
|---|---|
| Airport | Naples International Airport (LIRN) |
Arrival
| Time | 2026-05-04 17:49 |
|---|---|
| Airport | Zürich Airport (LSZH) |
| Time | Latitude | Longitude | Altitude | Speed | Heading |
|---|---|---|---|---|---|
| 2026-05-04 15:56 | 40.87865 | 14.28405 | 290 ft | 0 kts | 187° |
| 2026-05-04 16:20 | 40.87907 | 14.28412 | 293 ft | 4 kts | 177° |
| 2026-05-04 16:21 | 40.87941 | 14.28384 | 294 ft | 0 kts | 98° |
| 2026-05-04 16:27 | 40.87957 | 14.28488 | 291 ft | 16 kts | 37° |
| 2026-05-04 16:28 | 40.88242 | 14.28949 | 277 ft | 28 kts | 53° |
| 2026-05-04 16:28 | 40.88656 | 14.29666 | 256 ft | 37 kts | 52° |
| 2026-05-04 16:29 | 40.89084 | 14.30096 | 238 ft | 7 kts | 313° |
| 2026-05-04 16:30 | 40.88487 | 14.28833 | 274 ft | 143 kts | 238° |
| 2026-05-04 16:31 | 40.87461 | 14.26286 | 1312 ft | 171 kts | 269° |
| 2026-05-04 16:31 | 40.89308 | 14.21638 | 2846 ft | 219 kts | 298° |
| 2026-05-04 16:32 | 40.91560 | 14.16200 | 5347 ft | 227 kts | 298° |
| 2026-05-04 16:33 | 40.93495 | 14.12882 | 6923 ft | 234 kts | 327° |
| 2026-05-04 16:33 | 40.96873 | 14.11741 | 7831 ft | 277 kts | 354° |
| 2026-05-04 16:34 | 41.00803 | 14.11209 | 9421 ft | 289 kts | 353° |
| 2026-05-04 16:34 | 41.02820 | 14.10926 | 10272 ft | 293 kts | 353° |
| 2026-05-04 16:35 | 41.09534 | 14.09966 | 11588 ft | 346 kts | 353° |
| 2026-05-04 16:35 | 41.16834 | 14.08858 | 13830 ft | 357 kts | 348° |
| 2026-05-04 16:36 | 41.18467 | 14.08282 | 14312 ft | 360 kts | 340° |
| 2026-05-04 16:36 | 41.22747 | 14.04906 | 15684 ft | 365 kts | 319° |
| 2026-05-04 16:37 | 41.26646 | 14.00483 | 16993 ft | 372 kts | 319° |
| 2026-05-04 16:37 | 41.28626 | 13.98249 | 17630 ft | 375 kts | 319° |
| 2026-05-04 16:37 | 41.32353 | 13.93329 | 18840 ft | 381 kts | 313° |
| 2026-05-04 16:38 | 41.36021 | 13.88163 | 20064 ft | 387 kts | 313° |
| 2026-05-04 16:39 | 41.41615 | 13.80242 | 21832 ft | 396 kts | 313° |
| 2026-05-04 16:39 | 41.45410 | 13.74867 | 22947 ft | 400 kts | 313° |
| 2026-05-04 16:40 | 41.49250 | 13.69417 | 23952 ft | 405 kts | 312° |
| 2026-05-04 16:40 | 41.53122 | 13.63897 | 24886 ft | 410 kts | 312° |
| 2026-05-04 16:41 | 41.57037 | 13.58323 | 25720 ft | 414 kts | 312° |
| 2026-05-04 16:41 | 41.62970 | 13.49853 | 26886 ft | 421 kts | 312° |
| 2026-05-04 16:42 | 41.69022 | 13.41190 | 27967 ft | 428 kts | 312° |
| 2026-05-04 16:43 | 41.73092 | 13.35340 | 28656 ft | 431 kts | 312° |
| 2026-05-04 16:43 | 41.77196 | 13.29427 | 29288 ft | 434 kts | 312° |
| 2026-05-04 16:43 | 41.79259 | 13.26449 | 29584 ft | 436 kts | 312° |
| 2026-05-04 16:44 | 41.88724 | 13.16148 | 30674 ft | 443 kts | 324° |
| 2026-05-04 16:45 | 41.93794 | 13.11434 | 31204 ft | 444 kts | 324° |
| 2026-05-04 16:46 | 42.01336 | 13.04400 | 32249 ft | 438 kts | 323° |
| 2026-05-04 16:46 | 42.06350 | 12.99724 | 32826 ft | 438 kts | 323° |
| 2026-05-04 16:47 | 42.11345 | 12.95052 | 33442 ft | 436 kts | 323° |
| 2026-05-04 16:47 | 42.16301 | 12.90399 | 34075 ft | 433 kts | 323° |
| 2026-05-04 16:48 | 42.23673 | 12.83445 | 34982 ft | 429 kts | 323° |
| 2026-05-04 16:48 | 42.26127 | 12.81132 | 35259 ft | 429 kts | 323° |
| 2026-05-04 16:49 | 42.30983 | 12.76555 | 35769 ft | 427 kts | 323° |
| 2026-05-04 16:49 | 42.35850 | 12.71958 | 36243 ft | 427 kts | 323° |
| 2026-05-04 16:50 | 42.40715 | 12.67346 | 36702 ft | 426 kts | 323° |
| 2026-05-04 16:50 | 42.45523 | 12.62780 | 37294 ft | 418 kts | 323° |
| 2026-05-04 16:51 | 42.50275 | 12.58261 | 37726 ft | 416 kts | 323° |
| 2026-05-04 16:51 | 42.52619 | 12.56028 | 37882 ft | 416 kts | 323° |
| 2026-05-04 16:51 | 42.57365 | 12.51496 | 38134 ft | 417 kts | 323° |
| 2026-05-04 16:52 | 42.62110 | 12.46965 | 38143 ft | 417 kts | 323° |
| 2026-05-04 16:53 | 42.69223 | 12.40162 | 38149 ft | 417 kts | 323° |
| 2026-05-04 16:54 | 42.78698 | 12.31043 | 38130 ft | 417 kts | 323° |
| 2026-05-04 16:55 | 42.92908 | 12.17323 | 38128 ft | 418 kts | 322° |
| 2026-05-04 16:56 | 43.04791 | 12.05785 | 38127 ft | 420 kts | 322° |
| 2026-05-04 16:57 | 43.11928 | 11.98826 | 38124 ft | 420 kts | 322° |
| 2026-05-04 16:58 | 43.21452 | 11.89510 | 38116 ft | 421 kts | 322° |
| 2026-05-04 17:00 | 43.35710 | 11.75500 | 38109 ft | 422 kts | 322° |
| 2026-05-04 17:01 | 43.47656 | 11.63700 | 38106 ft | 423 kts | 322° |
| 2026-05-04 17:02 | 43.57191 | 11.54243 | 38111 ft | 423 kts | 322° |
| 2026-05-04 17:03 | 43.64352 | 11.47097 | 38107 ft | 423 kts | 322° |
| 2026-05-04 17:03 | 43.71521 | 11.39937 | 38105 ft | 424 kts | 322° |
| 2026-05-04 17:04 | 43.81064 | 11.30353 | 38099 ft | 424 kts | 322° |
| 2026-05-04 17:05 | 43.90606 | 11.20776 | 38100 ft | 424 kts | 322° |
| 2026-05-04 17:06 | 43.97759 | 11.13539 | 38106 ft | 424 kts | 322° |
| 2026-05-04 17:07 | 44.04108 | 11.07109 | 38106 ft | 424 kts | 322° |
| 2026-05-04 17:07 | 44.09691 | 11.01443 | 38116 ft | 425 kts | 322° |
| 2026-05-04 17:08 | 44.16828 | 10.94169 | 38154 ft | 425 kts | 322° |
| 2026-05-04 17:09 | 44.21603 | 10.89289 | 38170 ft | 426 kts | 321° |
| 2026-05-04 17:09 | 44.26390 | 10.84399 | 38181 ft | 426 kts | 322° |
| 2026-05-04 17:10 | 44.38318 | 10.72141 | 38197 ft | 426 kts | 321° |
| 2026-05-04 17:11 | 44.43129 | 10.67299 | 38195 ft | 426 kts | 323° |
| 2026-05-04 17:12 | 44.50470 | 10.60305 | 38175 ft | 427 kts | 323° |
| 2026-05-04 17:13 | 44.62693 | 10.48461 | 38140 ft | 427 kts | 323° |
| 2026-05-04 17:14 | 44.72415 | 10.38978 | 38094 ft | 427 kts | 323° |
| 2026-05-04 17:15 | 44.79735 | 10.31789 | 38070 ft | 427 kts | 323° |
| 2026-05-04 17:16 | 44.89418 | 10.22032 | 38052 ft | 427 kts | 321° |
| 2026-05-04 17:17 | 44.98969 | 10.12113 | 38043 ft | 427 kts | 322° |
| 2026-05-04 17:18 | 45.08591 | 10.02171 | 38040 ft | 428 kts | 321° |
| 2026-05-04 17:19 | 45.18207 | 9.92177 | 38039 ft | 429 kts | 321° |
| 2026-05-04 17:20 | 45.27810 | 9.82164 | 38038 ft | 430 kts | 321° |
| 2026-05-04 17:20 | 45.35039 | 9.74593 | 38042 ft | 430 kts | 321° |
| 2026-05-04 17:21 | 45.44676 | 9.64441 | 38044 ft | 430 kts | 321° |
| 2026-05-04 17:22 | 45.49468 | 9.59400 | 38040 ft | 431 kts | 321° |
| 2026-05-04 17:23 | 45.58293 | 9.50057 | 38043 ft | 431 kts | 321° |
| 2026-05-04 17:24 | 45.65525 | 9.42387 | 38045 ft | 431 kts | 321° |
| 2026-05-04 17:25 | 45.75132 | 9.32139 | 38057 ft | 432 kts | 321° |
| 2026-05-04 17:26 | 45.84759 | 9.21838 | 38066 ft | 431 kts | 321° |
| 2026-05-04 17:27 | 45.96760 | 9.08907 | 37713 ft | 433 kts | 321° |
| 2026-05-04 17:27 | 46.01587 | 9.03761 | 36709 ft | 432 kts | 322° |
| 2026-05-04 17:28 | 46.06482 | 8.98700 | 35709 ft | 436 kts | 322° |
| 2026-05-04 17:29 | 46.13981 | 8.91071 | 33474 ft | 448 kts | 327° |
| 2026-05-04 17:29 | 46.23198 | 8.87166 | 30150 ft | 470 kts | 353° |
| 2026-05-04 17:30 | 46.32848 | 8.85709 | 27972 ft | 456 kts | 353° |
| 2026-05-04 17:31 | 46.39085 | 8.84756 | 26699 ft | 446 kts | 353° |
| 2026-05-04 17:31 | 46.48192 | 8.83372 | 24874 ft | 432 kts | 353° |
| 2026-05-04 17:32 | 46.54097 | 8.82489 | 23779 ft | 420 kts | 353° |
| 2026-05-04 17:33 | 46.62703 | 8.81193 | 22207 ft | 407 kts | 353° |
| 2026-05-04 17:33 | 46.65511 | 8.80770 | 21723 ft | 404 kts | 353° |
| 2026-05-04 17:34 | 46.73789 | 8.79511 | 20244 ft | 394 kts | 353° |
| 2026-05-04 17:34 | 46.76503 | 8.79094 | 19756 ft | 390 kts | 353° |
| 2026-05-04 17:35 | 46.84545 | 8.77870 | 18242 ft | 383 kts | 353° |
| 2026-05-04 17:35 | 46.89825 | 8.77069 | 17232 ft | 379 kts | 353° |
| 2026-05-04 17:35 | 46.92444 | 8.76670 | 16744 ft | 377 kts | 353° |
| 2026-05-04 17:36 | 46.95045 | 8.76270 | 16237 ft | 373 kts | 353° |
| 2026-05-04 17:36 | 46.97613 | 8.75869 | 15770 ft | 370 kts | 353° |
| 2026-05-04 17:36 | 47.00170 | 8.75461 | 15277 ft | 369 kts | 353° |
| 2026-05-04 17:36 | 47.02718 | 8.75053 | 14794 ft | 367 kts | 353° |
| 2026-05-04 17:37 | 47.05251 | 8.74651 | 14309 ft | 365 kts | 353° |
| 2026-05-04 17:37 | 47.07761 | 8.74229 | 13791 ft | 362 kts | 352° |
| 2026-05-04 17:37 | 47.10285 | 8.73669 | 12897 ft | 371 kts | 349° |
| 2026-05-04 17:37 | 47.12843 | 8.72992 | 12268 ft | 372 kts | 348° |
| 2026-05-04 17:38 | 47.15365 | 8.72277 | 11706 ft | 364 kts | 348° |
| 2026-05-04 17:38 | 47.17817 | 8.71579 | 10855 ft | 365 kts | 348° |
| 2026-05-04 17:38 | 47.20306 | 8.70883 | 10623 ft | 351 kts | 349° |
| 2026-05-04 17:38 | 47.22659 | 8.70306 | 10494 ft | 336 kts | 356° |
| 2026-05-04 17:39 | 47.26654 | 8.72682 | 10126 ft | 304 kts | 51° |
| 2026-05-04 17:39 | 47.27606 | 8.75381 | 9722 ft | 297 kts | 78° |
| 2026-05-04 17:39 | 47.27946 | 8.78344 | 9505 ft | 292 kts | 82° |
| 2026-05-04 17:40 | 47.28257 | 8.81298 | 9320 ft | 291 kts | 82° |
| 2026-05-04 17:40 | 47.28571 | 8.84242 | 9130 ft | 290 kts | 82° |
| 2026-05-04 17:40 | 47.28886 | 8.87171 | 8941 ft | 289 kts | 81° |
| 2026-05-04 17:40 | 47.29199 | 8.90089 | 8762 ft | 288 kts | 81° |
| 2026-05-04 17:41 | 47.29513 | 8.93010 | 8570 ft | 288 kts | 81° |
| 2026-05-04 17:41 | 47.29829 | 8.95917 | 8401 ft | 287 kts | 81° |
| 2026-05-04 17:41 | 47.30284 | 8.98768 | 8211 ft | 286 kts | 67° |
| 2026-05-04 17:41 | 47.31377 | 9.01193 | 8021 ft | 285 kts | 45° |
| 2026-05-04 17:42 | 47.33009 | 9.02828 | 7825 ft | 285 kts | 24° |
| 2026-05-04 17:42 | 47.34909 | 9.03633 | 7641 ft | 285 kts | 7° |
| 2026-05-04 17:42 | 47.36883 | 9.03634 | 7452 ft | 284 kts | 351° |
| 2026-05-04 17:42 | 47.38760 | 9.02845 | 7261 ft | 277 kts | 335° |
| 2026-05-04 17:43 | 47.40361 | 9.01400 | 7073 ft | 266 kts | 320° |
| 2026-05-04 17:43 | 47.41617 | 8.99473 | 6721 ft | 263 kts | 306° |
| 2026-05-04 17:43 | 47.42496 | 8.97109 | 6437 ft | 257 kts | 290° |
| 2026-05-04 17:43 | 47.42917 | 8.94608 | 6158 ft | 252 kts | 276° |
| 2026-05-04 17:44 | 47.43104 | 8.92061 | 5909 ft | 247 kts | 276° |
| 2026-05-04 17:44 | 47.43290 | 8.89573 | 5688 ft | 240 kts | 276° |
| 2026-05-04 17:44 | 47.43470 | 8.87162 | 5487 ft | 233 kts | 276° |
| 2026-05-04 17:44 | 47.43644 | 8.84810 | 5343 ft | 225 kts | 276° |
| 2026-05-04 17:45 | 47.43811 | 8.82532 | 5098 ft | 222 kts | 276° |
| 2026-05-04 17:45 | 47.43975 | 8.80298 | 4833 ft | 216 kts | 276° |
| 2026-05-04 17:45 | 47.44136 | 8.78113 | 4505 ft | 211 kts | 276° |
| 2026-05-04 17:45 | 47.44291 | 8.75980 | 4185 ft | 205 kts | 276° |
| 2026-05-04 17:46 | 47.44440 | 8.73952 | 3889 ft | 191 kts | 276° |
| 2026-05-04 17:46 | 47.44576 | 8.72090 | 3625 ft | 174 kts | 275° |
| 2026-05-04 17:46 | 47.44691 | 8.70500 | 3415 ft | 159 kts | 276° |
| 2026-05-04 17:46 | 47.44797 | 8.69037 | 3185 ft | 149 kts | 275° |
| 2026-05-04 17:47 | 47.44906 | 8.67547 | 2975 ft | 143 kts | 274° |
| 2026-05-04 17:47 | 47.45010 | 8.66104 | 2770 ft | 139 kts | 277° |
| 2026-05-04 17:47 | 47.45111 | 8.64689 | 2572 ft | 138 kts | 277° |
| 2026-05-04 17:47 | 47.45200 | 8.63298 | 2373 ft | 137 kts | 275° |
| 2026-05-04 17:48 | 47.45292 | 8.61900 | 2163 ft | 137 kts | 278° |
| 2026-05-04 17:48 | 47.45412 | 8.60507 | 1973 ft | 135 kts | 278° |
| 2026-05-04 17:48 | 47.45509 | 8.59129 | 1771 ft | 136 kts | 275° |
| 2026-05-04 17:48 | 47.45613 | 8.57718 | 1585 ft | 139 kts | 277° |
| 2026-05-04 17:49 | 47.45713 | 8.56308 | 1427 ft | 132 kts | 276° |
| 2026-05-04 17:49 | 47.45794 | 8.55131 | 1402 ft | 93 kts | 276° |
| 2026-05-04 17:49 | 47.45845 | 8.54438 | 1390 ft | 43 kts | 276° |
| 2026-05-04 17:49 | 47.45863 | 8.54175 | 1395 ft | 29 kts | 276° |
| 2026-05-04 17:50 | 47.45878 | 8.53832 | 1403 ft | 24 kts | 246° |
| 2026-05-04 17:50 | 47.45733 | 8.53795 | 1395 ft | 26 kts | 139° |
| 2026-05-04 17:50 | 47.45662 | 8.54055 | 1387 ft | 29 kts | 107° |
| 2026-05-04 17:50 | 47.45599 | 8.54344 | 1385 ft | 30 kts | 107° |
| 2026-05-04 17:51 | 47.45536 | 8.54638 | 1388 ft | 30 kts | 108° |
| 2026-05-04 17:51 | 47.45472 | 8.54925 | 1393 ft | 30 kts | 109° |
| 2026-05-04 17:51 | 47.45403 | 8.55206 | 1398 ft | 22 kts | 110° |
| 2026-05-04 17:51 | 47.45375 | 8.55321 | 1401 ft | 6 kts | 97° |
| 2026-05-04 17:52 | 47.45391 | 8.55357 | 1406 ft | 5 kts | 35° |
| 2026-05-04 17:52 | 47.45439 | 8.55391 | 1405 ft | 8 kts | 25° |
| 2026-05-04 17:52 | 47.45477 | 8.55418 | 1407 ft | 6 kts | 26° |
| 2026-05-04 17:52 | 47.45519 | 8.55451 | 1403 ft | 7 kts | 37° |
| 2026-05-04 17:53 | 47.45524 | 8.55538 | 1408 ft | 11 kts | 99° |
| 2026-05-04 17:53 | 47.45516 | 8.55649 | 1410 ft | 10 kts | 96° |
| 2026-05-04 17:53 | 47.45507 | 8.55780 | 1411 ft | 15 kts | 96° |
| 2026-05-04 17:53 | 47.45495 | 8.55941 | 1407 ft | 16 kts | 96° |
| 2026-05-04 17:54 | 47.45487 | 8.56061 | 1407 ft | 6 kts | 99° |
| 2026-05-04 17:54 | 47.45454 | 8.56070 | 1410 ft | 5 kts | 195° |
| 2026-05-04 17:54 | 47.45431 | 8.56065 | 1407 ft | 3 kts | 184° |
| 2026-05-04 17:54 | 47.45415 | 8.56062 | 1411 ft | 2 kts | 186° |
| 2026-05-04 17:55 | 47.45408 | 8.56061 | 1407 ft | 0 kts | 187° |